Time;durP1;ratioP1;P1;durP2;ratioP2;P2;SDS_P1;SDS_P2;PMS_P1;PMS_P2;Temp;Humidity;BMP_temperature;BMP_pressure;BME280_temperature;BME280_humidity;BME280_pressure;Samples;Min_cycle;Max_cycle;Signal;HPM_P1;HPM_P2
2023/11/22 00:00:07;;;;;;;3.38;1.80;;;;;;;9.05;64.23;92765.13;515687;28;1640;-69
2023/11/22 00:00:22;;;;;;;2.20;1.70;;;;;;;9.06;64.32;92755.59;515755;28;940;-69
2023/11/22 00:00:38;;;;;;;1.83;1.67;;;;;;;9.07;64.69;92768.06;515756;28;825;-69
2023/11/22 00:00:53;;;;;;;2.50;1.80;;;;;;;9.08;64.29;92766.06;515818;28;766;-69
2023/11/22 00:01:10;;;;;;;2.70;1.80;;;;;;;9.09;64.44;92757.25;515740;28;977;-69
2023/11/22 00:01:26;;;;;;;2.22;1.77;;;;;;;8.95;64.38;92742.22;515830;28;811;-69
2023/11/22 00:01:41;;;;;;;2.85;1.80;;;;;;;9.08;64.55;92758.53;515767;28;852;-69
2023/11/22 00:01:57;;;;;;;3.40;2.10;;;;;;;9.09;64.61;92764.78;515778;28;836;-69
2023/11/22 00:02:13;;;;;;;2.67;2.15;;;;;;;9.09;64.33;92759.28;515566;28;871;-69
2023/11/22 00:02:29;;;;;;;2.30;2.10;;;;;;;9.09;64.37;92756.53;513501;28;2313;-69
2023/11/22 00:02:44;;;;;;;2.30;2.10;;;;;;;9.09;64.58;92762.03;513595;28;798;-70
2023/11/22 00:02:59;;;;;;;2.28;2.08;;;;;;;9.09;64.55;92754.50;513597;28;889;-70
2023/11/22 00:03:15;;;;;;;2.97;2.57;;;;;;;9.11;64.34;92759.44;513522;28;797;-70
2023/11/22 00:03:31;;;;;;;3.83;2.65;;;;;;;9.10;64.38;92757.97;513607;28;862;-70
2023/11/22 00:03:46;;;;;;;4.57;2.57;;;;;;;9.10;64.51;92761.47;513621;28;746;-70
2023/11/22 00:04:02;;;;;;;4.88;2.60;;;;;;;9.09;64.61;92762.03;513636;28;834;-70
2023/11/22 00:04:20;;;;;;;5.73;3.07;;;;;;;9.09;64.67;92762.75;514085;28;811;-70
2023/11/22 00:04:35;;;;;;;6.32;4.15;;;;;;;9.06;64.82;92761.09;515754;28;813;-70
2023/11/22 00:04:51;;;;;;;5.67;3.77;;;;;;;9.05;64.70;92758.91;515721;28;786;-70
2023/11/22 00:05:06;;;;;;;4.97;3.42;;;;;;;9.03;65.00;92767.00;515874;28;904;-70
2023/11/22 00:05:22;;;;;;;4.33;3.07;;;;;;;9.02;64.73;92765.53;515814;28;782;-70
2023/11/22 00:05:37;;;;;;;4.95;2.90;;;;;;;8.98;65.08;92765.19;515857;28;790;-70
2023/11/22 00:05:53;;;;;;;6.03;3.73;;;;;;;8.98;64.65;92762.41;515794;28;790;-70
2023/11/22 00:06:08;;;;;;;5.75;4.25;;;;;;;8.97;65.03;92764.44;515720;28;1136;-70
2023/11/22 00:06:24;;;;;;;5.37;3.93;;;;;;;8.96;64.64;92765.75;515784;28;766;-71
2023/11/22 00:06:39;;;;;;;4.72;3.38;;;;;;;8.96;64.69;92767.75;515788;28;1033;-70
2023/11/22 00:06:55;;;;;;;3.40;2.77;;;;;;;8.83;65.01;92749.44;515868;28;773;-70
2023/11/22 00:07:11;;;;;;;2.70;2.20;;;;;;;8.94;64.94;92760.03;515659;28;993;-70
2023/11/22 00:07:29;;;;;;;2.20;1.77;;;;;;;8.96;64.63;92768.50;515638;28;845;-70
2023/11/22 00:07:45;;;;;;;2.05;1.65;;;;;;;9.00;64.47;92766.09;515122;28;1186;-70
2023/11/22 00:08:00;;;;;;;2.63;1.97;;;;;;;9.01;64.59;92764.78;515854;28;785;-70
2023/11/22 00:08:16;;;;;;;3.08;1.88;;;;;;;8.99;64.79;92761.13;515777;28;793;-70
2023/11/22 00:08:31;;;;;;;3.00;1.90;;;;;;;8.98;64.82;92754.16;515809;28;851;-70
2023/11/22 00:08:46;;;;;;;2.65;1.90;;;;;;;8.96;64.93;92757.47;515562;28;840;-70
2023/11/22 00:09:02;;;;;;;2.50;1.70;;;;;;;8.97;64.82;92760.94;515805;28;881;-70
2023/11/22 00:09:22;;;;;;;2.63;1.90;;;;;;;8.98;64.72;92768.66;515743;28;876;-70
2023/11/22 00:09:37;;;;;;;1.80;1.67;;;;;;;9.01;64.73;92762.03;515730;28;928;-70
2023/11/22 00:09:53;;;;;;;2.30;1.58;;;;;;;8.99;64.67;92761.84;515806;28;769;-69
2023/11/22 00:10:08;;;;;;;2.53;1.70;;;;;;;9.02;64.73;92762.78;515761;28;796;-69
2023/11/22 00:10:24;;;;;;;1.98;1.60;;;;;;;9.03;64.34;92762.22;515745;28;837;-70
2023/11/22 00:10:39;;;;;;;1.93;1.67;;;;;;;9.05;64.40;92756.88;515785;28;826;-70
2023/11/22 00:10:55;;;;;;;2.20;1.70;;;;;;;9.09;64.48;92757.25;515883;28;961;-70
2023/11/22 00:11:13;;;;;;;1.92;1.58;;;;;;;9.11;64.49;92762.94;515718;28;876;-70
2023/11/22 00:11:28;;;;;;;1.77;1.65;;;;;;;9.12;64.36;92758.16;515732;28;837;-70
2023/11/22 00:11:44;;;;;;;2.50;2.00;;;;;;;9.13;64.65;92763.13;515695;28;802;-70
2023/11/22 00:12:00;;;;;;;4.20;2.50;;;;;;;9.13;64.47;92767.88;515818;28;804;-70
2023/11/22 00:12:17;;;;;;;6.97;3.38;;;;;;;9.13;64.45;92762.38;515791;28;1563;-70
2023/11/22 00:12:36;;;;;;;7.85;5.25;;;;;;;9.12;64.69;92764.38;515596;28;896;-70
2023/11/22 00:12:51;;;;;;;8.38;5.60;;;;;;;9.13;64.36;92765.88;515782;28;817;-70
2023/11/22 00:13:07;;;;;;;7.90;5.15;;;;;;;9.12;64.41;92761.63;515688;28;821;-71
2023/11/22 00:13:22;;;;;;;6.00;4.40;;;;;;;9.14;64.51;92758.31;515709;28;797;-71
2023/11/22 00:13:39;;;;;;;5.03;3.67;;;;;;;9.15;64.41;92757.03;515787;28;1070;-71
2023/11/22 00:13:55;;;;;;;4.20;3.28;;;;;;;9.17;64.24;92762.72;515786;28;836;-70
2023/11/22 00:14:11;;;;;;;3.25;2.60;;;;;;;9.18;64.52;92763.47;515721;28;1971;-70
2023/11/22 00:14:26;;;;;;;2.60;2.20;;;;;;;9.18;64.63;92764.91;515757;28;840;-70
2023/11/22 00:14:42;;;;;;;2.20;2.00;;;;;;;9.20;64.52;92764.38;515797;28;1174;-70
2023/11/22 00:14:57;;;;;;;2.10;1.90;;;;;;;9.21;64.04;92760.31;515774;28;815;-70
2023/11/22 00:15:17;;;;;;;2.00;1.80;;;;;;;9.22;64.23;92769.31;515829;28;922;-70
2023/11/22 00:15:33;;;;;;;2.00;1.60;;;;;;;9.23;64.34;92768.75;515691;28;914;-70
2023/11/22 00:15:50;;;;;;;1.60;1.50;;;;;;;9.23;64.27;92760.50;515653;28;797;-70
2023/11/22 00:16:08;;;;;;;1.70;1.60;;;;;;;9.26;64.32;92764.16;515817;28;918;-70
2023/11/22 00:16:24;;;;;;;3.00;1.77;;;;;;;9.27;64.04;92762.88;515359;28;1159;-70
2023/11/22 00:16:39;;;;;;;2.73;1.70;;;;;;;9.26;64.02;92761.41;515700;28;1152;-70
2023/11/22 00:16:55;;;;;;;1.65;1.50;;;;;;;9.27;64.26;92768.41;516863;28;1017;-70
2023/11/22 00:17:10;;;;;;;1.67;1.57;;;;;;;9.28;63.96;92761.59;516648;28;1013;-70
2023/11/22 00:17:26;;;;;;;1.70;1.60;;;;;;;9.25;64.03;92763.41;516734;28;1167;-70
2023/11/22 00:17:41;;;;;;;1.60;1.50;;;;;;;9.26;64.19;92758.66;516517;28;1017;-70
2023/11/22 00:18:03;;;;;;;1.77;1.67;;;;;;;9.26;64.06;92759.38;516900;28;1172;-70
2023/11/22 00:18:19;;;;;;;1.92;1.83;;;;;;;9.27;64.41;92760.13;511630;28;2100;-70
2023/11/22 00:18:37;;;;;;;2.10;1.90;;;;;;;9.26;64.37;92758.66;514550;28;1850;-70
2023/11/22 00:18:52;;;;;;;2.63;2.13;;;;;;;9.26;64.35;92761.41;511488;28;3178;-70
2023/11/22 00:19:08;;;;;;;3.55;2.20;;;;;;;9.24;63.93;92753.72;513912;28;1681;-70
2023/11/22 00:19:23;;;;;;;2.73;1.90;;;;;;;9.27;64.13;92758.09;514162;28;1826;-70
2023/11/22 00:19:40;;;;;;;1.77;1.67;;;;;;;9.25;64.10;92754.44;513618;28;1925;-70
2023/11/22 00:19:55;;;;;;;2.20;1.77;;;;;;;9.27;64.24;92755.34;513880;28;1969;-70
2023/11/22 00:20:11;;;;;;;2.17;1.80;;;;;;;9.29;64.26;92750.00;512489;28;1570;-70
2023/11/22 00:20:27;;;;;;;1.77;1.67;;;;;;;9.07;64.20;92723.31;511702;28;3777;-70
2023/11/22 00:20:42;;;;;;;1.92;1.73;;;;;;;9.35;64.22;92758.81;513031;28;1654;-70
2023/11/22 00:20:59;;;;;;;2.43;1.80;;;;;;;9.37;63.80;92755.50;513864;28;3851;-69
2023/11/22 00:21:14;;;;;;;3.10;1.90;;;;;;;9.38;64.00;92763.19;512564;28;1575;-69
2023/11/22 00:21:30;;;;;;;2.58;1.77;;;;;;;9.41;63.93;92759.31;512989;28;1836;-69
2023/11/22 00:21:46;;;;;;;1.83;1.60;;;;;;;9.42;63.59;92757.31;513299;28;1567;-69
2023/11/22 00:22:09;;;;;;;1.60;1.50;;;;;;;9.44;63.58;92758.19;512958;28;2342;-70
2023/11/22 00:22:27;;;;;;;1.52;1.42;;;;;;;9.40;63.42;92768.88;513167;28;1540;-70
2023/11/22 00:22:45;;;;;;;2.28;1.88;;;;;;;9.40;63.76;92759.91;513629;28;1605;-70
2023/11/22 00:23:00;;;;;;;5.00;3.80;;;;;;;9.40;63.56;92765.41;513716;28;2787;-70
2023/11/22 00:23:16;;;;;;;8.10;5.83;;;;;;;9.41;63.76;92756.56;513215;28;2544;-70
2023/11/22 00:23:32;;;;;;;9.95;6.72;;;;;;;9.44;63.70;92757.47;513980;28;1948;-70
2023/11/22 00:23:48;;;;;;;11.23;7.63;;;;;;;9.46;63.71;92763.16;512332;28;2015;-70
2023/11/22 00:24:04;;;;;;;10.98;7.55;;;;;;;9.48;63.47;92760.59;512410;28;1928;-70
2023/11/22 00:24:20;;;;;;;10.88;7.40;;;;;;;9.50;63.67;92755.25;512962;28;1741;-70
2023/11/22 00:24:36;;;;;;;9.80;5.80;;;;;;;9.52;63.45;92760.94;513200;28;2422;-70
2023/11/22 00:24:51;;;;;;;9.10;4.67;;;;;;;9.53;63.62;92754.84;512107;28;1558;-70
2023/11/22 00:25:08;;;;;;;9.93;6.90;;;;;;;9.54;63.69;92759.09;512633;28;3169;-69
2023/11/22 00:25:24;;;;;;;10.57;7.97;;;;;;;9.56;63.47;92762.00;511241;28;1778;-69
2023/11/22 00:25:40;;;;;;;9.03;6.43;;;;;;;9.57;63.48;92755.19;511996;28;2647;-69
2023/11/22 00:25:56;;;;;;;4.93;3.67;;;;;;;9.59;63.46;92760.16;514103;28;2040;-70
2023/11/22 00:26:12;;;;;;;4.15;3.30;;;;;;;9.59;63.50;92755.41;512607;28;2098;-69
2023/11/22 00:26:28;;;;;;;5.33;4.03;;;;;;;9.60;63.65;92761.63;513037;28;1996;-69
2023/11/22 00:26:43;;;;;;;7.95;4.28;;;;;;;9.59;63.70;92758.16;512040;28;1716;-69
2023/11/22 00:26:59;;;;;;;9.60;5.13;;;;;;;9.56;63.84;92761.28;513770;28;3397;-69
2023/11/22 00:27:15;;;;;;;8.55;5.68;;;;;;;9.52;63.99;92755.41;512877;28;2023;-69
2023/11/22 00:27:34;;;;;;;8.60;5.18;;;;;;;9.52;63.75;92758.19;512986;28;3340;-69
2023/11/22 00:27:49;;;;;;;8.50;4.97;;;;;;;9.54;63.75;92761.09;512478;28;999;-69
2023/11/22 00:28:06;;;;;;;6.83;5.03;;;;;;;9.54;63.77;92756.31;513253;28;1965;-69
2023/11/22 00:28:22;;;;;;;8.27;6.22;;;;;;;9.56;63.63;92762.00;513079;28;1620;-69
2023/11/22 00:28:38;;;;;;;12.07;8.35;;;;;;;9.57;63.49;92763.47;512540;28;1968;-69
2023/11/22 00:28:53;;;;;;;12.77;8.63;;;;;;;9.58;63.51;92762.19;514088;28;1645;-69
2023/11/22 00:29:09;;;;;;;11.60;7.97;;;;;;;9.59;63.68;92763.66;514123;28;1669;-69
2023/11/22 00:29:25;;;;;;;10.05;7.18;;;;;;;9.61;63.75;92763.84;512711;28;3088;-69
2023/11/22 00:29:40;;;;;;;8.30;5.85;;;;;;;9.62;63.38;92759.03;513813;28;1577;-69
2023/11/22 00:29:56;;;;;;;7.90;5.57;;;;;;;9.62;63.49;92765.28;513768;28;1971;-69
2023/11/22 00:30:12;;;;;;;11.38;6.93;;;;;;;9.63;63.30;92760.50;513861;28;3165;-69
2023/11/22 00:30:28;;;;;;;12.02;7.72;;;;;;;9.64;63.38;92762.69;514508;28;2028;-69
2023/11/22 00:30:43;;;;;;;10.55;6.85;;;;;;;9.63;63.44;92761.25;513459;28;1548;-69
2023/11/22 00:30:59;;;;;;;9.30;5.63;;;;;;;9.57;64.03;92757.25;512671;28;1630;-69
2023/11/22 00:31:15;;;;;;;8.63;5.78;;;;;;;9.47;64.07;92746.06;512159;28;1522;-69
2023/11/22 00:31:30;;;;;;;8.57;6.07;;;;;;;9.59;63.58;92765.69;513266;28;3317;-69
2023/11/22 00:31:46;;;;;;;9.68;6.10;;;;;;;9.59;63.79;92768.44;511509;28;2475;-69
2023/11/22 00:32:01;;;;;;;9.30;6.18;;;;;;;9.59;63.85;92760.91;513280;28;1634;-70
2023/11/22 00:32:17;;;;;;;8.27;5.80;;;;;;;9.60;63.46;92765.13;512888;28;1898;-70
2023/11/22 00:32:32;;;;;;;9.25;5.55;;;;;;;9.60;63.63;92762.34;512299;28;2424;-70
2023/11/22 00:32:48;;;;;;;8.87;5.57;;;;;;;9.58;63.57;92759.44;511683;28;1865;-70
2023/11/22 00:33:04;;;;;;;7.45;4.85;;;;;;;9.55;63.41;92757.06;512563;28;1522;-70
2023/11/22 00:33:20;;;;;;;5.25;3.58;;;;;;;9.49;63.81;92768.28;513485;28;1625;-70
2023/11/22 00:33:36;;;;;;;4.72;4.10;;;;;;;9.47;63.69;92762.59;512186;28;3088;-70
2023/11/22 00:33:51;;;;;;;15.38;11.95;;;;;;;9.43;63.89;92756.75;510977;28;1716;-70
2023/11/22 00:34:07;;;;;;;20.47;16.03;;;;;;;9.33;64.06;92764.16;511434;28;1921;-70
2023/11/22 00:34:23;;;;;;;14.07;11.30;;;;;;;9.28;64.46;92762.31;510845;28;1865;-70
2023/11/22 00:34:38;;;;;;;9.65;7.40;;;;;;;9.22;64.78;92767.31;511829;28;1701;-70
2023/11/22 00:34:53;;;;;;;6.95;5.32;;;;;;;9.00;65.27;92760.59;509635;28;1896;-70
2023/11/22 00:35:09;;;;;;;6.20;4.13;;;;;;;8.86;65.75;92755.81;511509;28;1982;-70
2023/11/22 00:35:24;;;;;;;5.68;3.30;;;;;;;8.86;66.03;92758.59;510335;28;3051;-70
2023/11/22 00:35:40;;;;;;;6.17;3.70;;;;;;;8.92;65.85;92759.84;512320;28;1117;-69
2023/11/22 00:35:58;;;;;;;6.07;4.30;;;;;;;8.96;65.65;92756.75;513714;28;3440;-69
2023/11/22 00:36:13;;;;;;;4.20;3.40;;;;;;;9.00;65.87;92757.81;513354;28;1897;-69
2023/11/22 00:36:29;;;;;;;4.00;3.38;;;;;;;9.03;65.68;92759.47;514056;28;961;-69
2023/11/22 00:36:44;;;;;;;4.70;3.53;;;;;;;9.08;65.38;92752.28;511852;28;3259;-69
2023/11/22 00:37:00;;;;;;;4.13;3.20;;;;;;;9.09;65.53;92754.50;512358;28;1930;-69
2023/11/22 00:37:15;;;;;;;3.77;3.00;;;;;;;9.08;65.35;92750.28;511543;28;2621;-69
2023/11/22 00:37:34;;;;;;;3.53;2.78;;;;;;;9.11;65.28;92764.94;512979;28;1985;-69
2023/11/22 00:37:50;;;;;;;2.97;2.17;;;;;;;9.01;65.73;92764.78;512824;28;1839;-70
2023/11/22 00:38:06;;;;;;;2.50;2.20;;;;;;;8.95;65.90;92758.75;513410;28;1053;-69
2023/11/22 00:38:21;;;;;;;3.23;2.93;;;;;;;8.98;65.71;92760.41;513113;28;2430;-70
2023/11/22 00:38:39;;;;;;;3.40;3.10;;;;;;;8.96;65.77;92757.47;513429;28;1963;-70
2023/11/22 00:38:54;;;;;;;3.13;2.80;;;;;;;8.94;65.77;92762.78;513772;28;2067;-70
2023/11/22 00:39:12;;;;;;;3.77;3.03;;;;;;;8.94;66.03;92760.03;513724;28;1669;-69
2023/11/22 00:39:28;;;;;;;5.47;3.42;;;;;;;8.96;65.78;92762.25;513911;28;1725;-69
2023/11/22 00:39:43;;;;;;;5.65;3.42;;;;;;;8.95;66.05;92767.00;512594;28;2748;-69
2023/11/22 00:40:00;;;;;;;4.13;3.17;;;;;;;8.96;66.20;92759.50;513250;28;1850;-69
2023/11/22 00:40:15;;;;;;;4.10;3.08;;;;;;;8.97;66.13;92758.19;512085;28;2438;-69
2023/11/22 00:40:31;;;;;;;3.93;3.00;;;;;;;8.99;65.98;92764.59;513333;28;919;-69
2023/11/22 00:40:47;;;;;;;3.28;2.95;;;;;;;9.01;65.71;92764.78;511978;28;3207;-69
2023/11/22 00:41:02;;;;;;;4.30;3.00;;;;;;;9.04;65.54;92763.69;512294;28;2048;-69
2023/11/22 00:41:18;;;;;;;4.15;2.90;;;;;;;9.05;65.86;92765.13;513598;28;2165;-69
2023/11/22 00:41:35;;;;;;;3.37;3.07;;;;;;;9.08;65.83;92764.03;514030;28;1807;-69
2023/11/22 00:41:50;;;;;;;3.20;2.90;;;;;;;9.11;65.88;92762.94;513255;28;1668;-69
2023/11/22 00:42:06;;;;;;;3.63;3.00;;;;;;;9.12;65.42;92760.91;513728;28;3809;-69
2023/11/22 00:42:22;;;;;;;4.30;3.40;;;;;;;9.14;65.67;92766.56;512967;28;1913;-69
2023/11/22 00:42:39;;;;;;;4.20;3.00;;;;;;;9.15;65.42;92757.78;514051;28;1639;-69
2023/11/22 00:42:54;;;;;;;4.00;2.83;;;;;;;9.18;65.70;92769.72;513915;28;1823;-70
2023/11/22 00:43:10;;;;;;;4.40;3.20;;;;;;;9.17;65.68;92759.97;513378;28;1643;-70
2023/11/22 00:43:26;;;;;;;4.03;3.30;;;;;;;9.09;65.65;92760.00;513524;28;1946;-70
2023/11/22 00:43:42;;;;;;;3.67;3.38;;;;;;;9.04;66.17;92758.19;511068;28;2763;-70
2023/11/22 00:43:57;;;;;;;3.37;3.07;;;;;;;9.06;65.84;92755.59;513992;28;1704;-70
2023/11/22 00:44:13;;;;;;;3.45;2.95;;;;;;;9.08;65.87;92755.78;512128;28;3545;-69
2023/11/22 00:44:28;;;;;;;3.80;3.40;;;;;;;9.09;66.01;92751.00;513944;28;2088;-69
2023/11/22 00:44:43;;;;;;;3.63;3.25;;;;;;;9.12;65.98;92749.88;512394;28;4074;-69
2023/11/22 00:44:59;;;;;;;3.40;2.90;;;;;;;9.13;65.55;92757.59;512146;28;1845;-69
2023/11/22 00:45:14;;;;;;;3.70;2.70;;;;;;;9.15;65.53;92749.53;512085;28;2155;-69
2023/11/22 00:45:30;;;;;;;3.25;2.72;;;;;;;9.17;65.79;92754.47;513906;28;2748;-70
2023/11/22 00:45:45;;;;;;;3.20;2.90;;;;;;;9.18;65.69;92740.13;512333;28;1652;-70
2023/11/22 00:46:01;;;;;;;3.45;3.10;;;;;;;9.20;65.80;92750.59;512369;28;2592;-70
2023/11/22 00:46:17;;;;;;;4.00;3.15;;;;;;;9.19;65.58;92746.38;513765;28;1476;-70
2023/11/22 00:46:32;;;;;;;3.90;3.00;;;;;;;9.24;65.42;92748.19;512750;28;1819;-70
2023/11/22 00:46:48;;;;;;;4.00;3.17;;;;;;;9.19;65.95;92749.13;512520;28;2063;-70
2023/11/22 00:47:03;;;;;;;3.80;3.00;;;;;;;9.19;65.49;92746.38;514520;28;1077;-70
2023/11/22 00:47:19;;;;;;;3.53;3.00;;;;;;;9.16;65.61;92748.22;511398;28;2048;-70
2023/11/22 00:47:34;;;;;;;4.57;3.50;;;;;;;9.18;65.74;92744.19;513652;28;1775;-70
2023/11/22 00:47:53;;;;;;;4.53;3.42;;;;;;;9.09;65.90;92743.50;512908;28;1597;-70
2023/11/22 00:48:09;;;;;;;3.45;3.10;;;;;;;9.03;66.04;92751.19;513022;28;1771;-70
2023/11/22 00:48:24;;;;;;;5.35;3.10;;;;;;;8.92;66.53;92742.63;512414;28;1500;-70
2023/11/22 00:48:40;;;;;;;6.05;3.33;;;;;;;8.91;66.47;92744.63;513269;28;1610;-70
2023/11/22 00:48:56;;;;;;;4.00;3.27;;;;;;;8.91;66.26;92738.38;513660;28;3180;-70
2023/11/22 00:49:11;;;;;;;3.33;2.42;;;;;;;8.93;66.30;92742.06;513118;28;1785;-70
2023/11/22 00:49:27;;;;;;;3.47;2.30;;;;;;;8.92;66.30;92746.09;513444;28;1670;-70
2023/11/22 00:49:42;;;;;;;3.97;3.10;;;;;;;8.94;66.37;92742.78;513388;28;2489;-70
2023/11/22 00:49:58;;;;;;;3.73;3.03;;;;;;;8.97;66.01;92739.66;512171;28;3447;-70
2023/11/22 00:50:13;;;;;;;3.40;2.78;;;;;;;9.00;65.99;92741.31;513482;28;1512;-70
2023/11/22 00:50:29;;;;;;;9.68;6.60;;;;;;;9.03;66.01;92740.19;513897;28;1985;-70
2023/11/22 00:50:44;;;;;;;18.23;10.83;;;;;;;9.06;65.73;92747.34;512882;28;1617;-70
2023/11/22 00:51:00;;;;;;;18.48;10.65;;;;;;;9.08;65.92;92744.75;512406;28;1861;-70
2023/11/22 00:51:15;;;;;;;12.23;8.07;;;;;;;9.11;65.74;92745.69;512255;28;1787;-70
2023/11/22 00:51:32;;;;;;;9.82;6.78;;;;;;;9.10;65.89;92742.19;512251;28;1650;-70
2023/11/22 00:51:47;;;;;;;8.45;5.70;;;;;;;9.12;65.82;92734.09;510736;28;1544;-70
2023/11/22 00:52:03;;;;;;;6.10;3.92;;;;;;;9.15;65.45;92738.50;511986;28;1821;-69
2023/11/22 00:52:19;;;;;;;6.00;3.97;;;;;;;9.15;65.58;92735.00;512146;28;934;-69
2023/11/22 00:52:34;;;;;;;6.88;3.70;;;;;;;9.18;65.64;92735.91;511292;28;2597;-69
2023/11/22 00:52:50;;;;;;;7.17;3.97;;;;;;;9.16;65.64;92728.94;510921;28;1805;-69
2023/11/22 00:53:05;;;;;;;8.38;5.10;;;;;;;9.15;65.45;92730.25;511837;28;1564;-70
2023/11/22 00:53:21;;;;;;;9.07;5.60;;;;;;;9.15;65.54;92735.00;512898;28;2353;-70
2023/11/22 00:53:36;;;;;;;8.65;5.55;;;;;;;9.14;65.67;92731.50;512949;28;1836;-70
2023/11/22 00:53:52;;;;;;;8.93;6.07;;;;;;;9.15;65.48;92733.00;512599;28;1984;-70
2023/11/22 00:54:07;;;;;;;8.23;6.00;;;;;;;9.15;65.76;92740.53;512356;28;2243;-70
2023/11/22 00:54:23;;;;;;;8.63;5.70;;;;;;;9.15;65.85;92740.53;511338;28;1912;-70
2023/11/22 00:54:38;;;;;;;7.15;4.88;;;;;;;9.14;65.63;92728.75;512658;28;2152;-70
2023/11/22 00:54:56;;;;;;;7.03;4.50;;;;;;;9.09;65.64;92715.94;512671;28;1833;-69
2023/11/22 00:55:12;;;;;;;5.82;3.83;;;;;;;9.15;65.58;92727.50;512482;28;1902;-69
2023/11/22 00:55:27;;;;;;;4.18;3.03;;;;;;;9.16;65.86;92726.19;511705;28;3176;-69
2023/11/22 00:55:43;;;;;;;3.87;2.70;;;;;;;9.17;65.47;92732.44;512970;28;3700;-69
2023/11/22 00:55:58;;;;;;;3.55;2.75;;;;;;;9.16;65.55;92731.69;514115;28;1906;-69
2023/11/22 00:56:14;;;;;;;4.27;3.43;;;;;;;9.03;66.44;92728.47;512947;28;2411;-69
2023/11/22 00:56:29;;;;;;;4.15;3.22;;;;;;;9.02;66.63;92733.22;513301;28;3082;-70
2023/11/22 00:56:45;;;;;;;3.83;2.60;;;;;;;9.02;66.54;92733.22;511853;28;2128;-70
2023/11/22 00:57:00;;;;;;;3.50;2.60;;;;;;;9.03;66.56;92726.41;512489;28;2977;-70
2023/11/22 00:57:16;;;;;;;6.17;3.40;;;;;;;9.04;66.25;92716.88;511561;28;4023;-70
2023/11/22 00:57:31;;;;;;;7.00;3.80;;;;;;;9.06;66.24;92725.31;512036;28;3042;-70
2023/11/22 00:57:46;;;;;;;4.83;3.60;;;;;;;9.04;66.32;92730.66;511621;28;2450;-70
2023/11/22 00:58:04;;;;;;;4.65;3.58;;;;;;;9.00;66.91;92735.06;513502;28;2169;-70
2023/11/22 00:58:19;;;;;;;5.53;4.22;;;;;;;8.97;66.83;92725.16;512429;28;2150;-70
2023/11/22 00:58:35;;;;;;;6.78;5.18;;;;;;;8.97;66.78;92725.16;512688;28;2380;-70
2023/11/22 00:58:51;;;;;;;7.03;4.90;;;;;;;8.99;66.73;92725.31;512924;28;2214;-70
2023/11/22 00:59:06;;;;;;;5.45;3.65;;;;;;;9.01;66.82;92729.00;513854;28;1913;-70
2023/11/22 00:59:22;;;;;;;3.77;3.17;;;;;;;9.01;66.73;92720.72;513885;28;1514;-70
2023/11/22 00:59:37;;;;;;;3.63;3.30;;;;;;;9.04;66.42;92718.91;513689;28;2100;-70
2023/11/22 00:59:53;;;;;;;5.13;3.63;;;;;;;9.06;66.63;92725.31;512227;28;2206;-70
2023/11/22 01:00:10;;;;;;;5.55;3.70;;;;;;;9.08;66.32;92713.72;513834;28;1693;-70
2023/11/22 01:00:26;;;;;;;4.90;3.40;;;;;;;9.10;66.29;92722.16;510977;28;1965;-70
2023/11/22 01:00:41;;;;;;;5.55;3.60;;;;;;;9.08;66.45;92714.47;513630;28;1809;-70
2023/11/22 01:00:57;;;;;;;4.80;3.50;;;;;;;9.07;66.54;92707.50;511631;28;3841;-71
2023/11/22 01:01:12;;;;;;;3.58;3.08;;;;;;;9.09;66.38;92710.44;513984;28;2044;-70
2023/11/22 01:01:29;;;;;;;3.83;3.30;;;;;;;9.09;66.63;92707.69;512106;28;2988;-70
2023/11/22 01:01:44;;;;;;;4.03;3.60;;;;;;;9.10;66.71;92711.91;513495;28;3350;-70
2023/11/22 01:01:59;;;;;;;4.80;3.97;;;;;;;9.12;66.52;92714.09;513639;28;1700;-69
2023/11/22 01:02:15;;;;;;;5.27;4.10;;;;;;;9.08;66.52;92714.47;513477;28;1625;-70
2023/11/22 01:02:31;;;;;;;4.93;3.70;;;;;;;9.13;66.29;92716.28;512380;28;3189;-70
2023/11/22 01:02:46;;;;;;;5.53;3.70;;;;;;;9.13;66.42;92710.78;513144;28;3948;-70
2023/11/22 01:03:04;;;;;;;4.57;3.07;;;;;;;9.14;66.24;92712.25;512149;28;3072;-69
2023/11/22 01:03:20;;;;;;;3.85;2.88;;;;;;;9.15;66.21;92702.69;513157;28;1671;-71
2023/11/22 01:03:35;;;;;;;5.78;3.33;;;;;;;9.17;66.38;92710.41;513930;28;3172;-71
2023/11/22 01:03:50;;;;;;;6.30;3.30;;;;;;;9.18;66.34;92712.59;513171;28;1866;-70
2023/11/22 01:04:07;;;;;;;4.80;3.40;;;;;;;9.20;66.28;92714.81;513584;28;1685;-69
2023/11/22 01:04:22;;;;;;;4.38;3.60;;;;;;;9.22;66.23;92708.72;513865;28;1749;-69
2023/11/22 01:04:37;;;;;;;5.50;3.80;;;;;;;9.23;66.05;92707.41;513387;28;1563;-70
2023/11/22 01:04:53;;;;;;;4.90;3.17;;;;;;;9.23;66.22;92710.19;513745;28;2408;-70
2023/11/22 01:05:10;;;;;;;3.53;2.60;;;;;;;9.21;66.13;92704.50;514299;28;1578;-70
2023/11/22 01:05:26;;;;;;;4.25;3.17;;;;;;;9.21;66.41;92710.00;513228;28;3701;-70
2023/11/22 01:05:42;;;;;;;4.10;3.20;;;;;;;9.22;66.46;92700.47;513690;28;1633;-69
2023/11/22 01:05:57;;;;;;;2.90;2.35;;;;;;;9.22;66.07;92700.47;513498;28;3056;-69
2023/11/22 01:06:13;;;;;;;2.57;2.10;;;;;;;9.25;65.94;92704.88;511293;28;1767;-69
2023/11/22 01:06:29;;;;;;;2.53;2.05;;;;;;;9.27;66.07;92694.03;513269;28;1865;-69
2023/11/22 01:06:44;;;;;;;1.90;1.65;;;;;;;9.26;65.92;92692.53;512173;28;943;-70
2023/11/22 01:07:00;;;;;;;1.83;1.50;;;;;;;9.27;66.06;92696.78;513489;28;2008;-70
2023/11/22 01:07:15;;;;;;;2.38;1.75;;;;;;;9.27;66.08;92697.50;514086;28;1937;-70
2023/11/22 01:07:31;;;;;;;3.90;2.00;;;;;;;9.29;65.75;92696.94;513376;28;1855;-70
2023/11/22 01:07:46;;;;;;;3.67;2.00;;;;;;;9.30;65.68;92703.91;512261;28;993;-70
2023/11/22 01:08:02;;;;;;;2.07;1.87;;;;;;;9.31;65.88;92708.13;512760;28;2091;-70
2023/11/22 01:08:18;;;;;;;2.55;1.63;;;;;;;9.29;66.04;92700.41;513100;28;2611;-70
2023/11/22 01:08:36;;;;;;;4.68;1.75;;;;;;;9.30;65.66;92706.66;513699;28;2009;-70
2023/11/22 01:08:52;;;;;;;3.60;1.98;;;;;;;9.31;65.87;92708.13;511842;28;2539;-70
2023/11/22 01:09:08;;;;;;;4.03;2.15;;;;;;;9.32;65.74;92710.31;514458;28;3469;-70
2023/11/22 01:09:24;;;;;;;4.30;2.47;;;;;;;9.34;65.69;92715.28;512145;28;2093;-69
2023/11/22 01:09:39;;;;;;;3.22;2.28;;;;;;;9.37;65.92;92705.91;514885;28;2038;-69
2023/11/22 01:09:55;;;;;;;2.50;2.00;;;;;;;9.38;65.88;92713.59;513216;28;3144;-69
2023/11/22 01:10:10;;;;;;;3.03;2.10;;;;;;;9.40;65.67;92715.81;512850;28;3224;-69
2023/11/22 01:10:26;;;;;;;2.90;2.00;;;;;;;9.40;65.51;92713.78;511657;28;1568;-69
2023/11/22 01:10:41;;;;;;;2.67;2.00;;;;;;;9.42;65.72;92713.22;510838;28;3356;-69
2023/11/22 01:10:57;;;;;;;3.80;2.38;;;;;;;9.43;65.78;92712.66;511361;28;1855;-69
2023/11/22 01:11:12;;;;;;;3.63;2.28;;;;;;;9.46;65.65;92713.56;511523;28;1671;-69
2023/11/22 01:11:28;;;;;;;2.20;1.90;;;;;;;9.47;65.25;92720.53;511643;28;1690;-69
2023/11/22 01:11:44;;;;;;;1.97;1.77;;;;;;;9.48;65.58;92717.25;511484;28;2110;-69
2023/11/22 01:12:00;;;;;;;2.20;1.70;;;;;;;9.51;65.20;92718.13;511583;28;1871;-69
2023/11/22 01:12:15;;;;;;;2.50;1.87;;;;;;;9.52;65.24;92716.84;511772;28;1642;-69
2023/11/22 01:12:32;;;;;;;2.10;1.90;;;;;;;9.52;65.42;92708.56;513769;28;1819;-69
2023/11/22 01:12:47;;;;;;;2.47;1.80;;;;;;;9.51;65.40;92720.88;511640;28;3036;-69
2023/11/22 01:13:04;;;;;;;2.85;1.73;;;;;;;9.50;65.39;92713.91;513764;28;3206;-69
2023/11/22 01:13:22;;;;;;;2.25;1.55;;;;;;;9.50;65.04;92714.66;513672;28;1544;-69
2023/11/22 01:13:40;;;;;;;2.50;1.50;;;;;;;9.54;65.14;92719.78;513242;28;1973;-69
2023/11/22 01:13:56;;;;;;;3.10;1.80;;;;;;;9.56;65.19;92717.19;512431;28;1948;-69
2023/11/22 01:14:12;;;;;;;3.45;2.20;;;;;;;9.57;65.10;92715.91;514414;28;1951;-70
2023/11/22 01:14:27;;;;;;;2.90;2.20;;;;;;;9.57;65.20;92719.38;512715;28;1868;-70
2023/11/22 01:14:43;;;;;;;2.80;2.40;;;;;;;9.59;65.07;92713.31;511660;28;4170;-70
2023/11/22 01:14:59;;;;;;;3.20;2.40;;;;;;;9.60;65.27;92720.28;513733;28;1836;-70
2023/11/22 01:15:14;;;;;;;2.78;2.35;;;;;;;9.61;65.21;92713.50;514409;28;1741;-70
2023/11/22 01:15:30;;;;;;;2.58;2.38;;;;;;;9.61;65.09;92716.25;512649;28;2163;-70
2023/11/22 01:15:46;;;;;;;2.90;2.33;;;;;;;9.61;65.07;92713.50;512622;28;1950;-69
2023/11/22 01:16:02;;;;;;;3.70;2.00;;;;;;;9.62;65.36;92706.66;513048;28;1777;-69
2023/11/22 01:16:17;;;;;;;3.53;1.90;;;;;;;9.63;64.86;92710.91;513463;28;1723;-69
2023/11/22 01:16:33;;;;;;;2.40;2.10;;;;;;;9.64;65.00;92710.34;513650;28;2107;-71
2023/11/22 01:16:48;;;;;;;2.20;2.00;;;;;;;9.64;65.42;92704.09;512697;28;1849;-70
2023/11/22 01:17:04;;;;;;;2.60;1.98;;;;;;;9.58;65.02;92701.56;512860;28;2163;-70
2023/11/22 01:17:20;;;;;;;3.15;2.08;;;;;;;9.62;65.25;92710.16;512957;28;2130;-70
2023/11/22 01:17:35;;;;;;;2.90;2.10;;;;;;;9.57;65.21;92702.84;513438;28;3521;-70
2023/11/22 01:17:51;;;;;;;3.22;2.30;;;;;;;9.65;64.92;92705.56;511960;28;3680;-70